Frankfort, MI (49635)

9:37 PM EDT on August 03, 2015 (GMT -0400)
Crystal Lake Pinecrest | | Change Station
CLOSE
Current Station
Personal Weather Station
Location: Beulah, MI
Elevation: 607 ft
Nearby Weather Stations

Elev 607 ft 44.66 °N, 86.14 °W | Updated 9 minutes ago

Clear
Clear
65.8 °F
Feels Like 65.8 °F
N
0.0
Wind Variable Wind from NE
Gusts 0.0 mph

Today
High -- | Low -- °F
--% Chance of Precip.
Yesterday
High -- | Low -- °F
Precip. -- in
6:33 AM 9:08 PM
Waning Gibbous, 82% visible
Pressure 29.82 in
Visibility 10.0 miles
Clouds Clear
Dew Point 61 °F
Humidity 83%
Rainfall 0.00 in
Snow Depth Not available.
UV 0 out of 12
Pollen 5.50 out of 12
Air Quality Not available.
Flu Activity Not available.
METAR KFKS 040115Z AUTO 00000KT 10SM CLR 18/15 A2982 RMK AO2 T01820153

More Conditions Fewer Conditions

Pressure 29.82 in
Visibility 10.0 miles
Clouds Clear
Dew Point 61 °F
Humidity 83%
Rainfall 0.00 in
Snow Depth Not available.
UV 0 out of 12
Pollen 5.50 out of 12
Air Quality Not available.
Flu Activity Not available.
METAR KFKS 040115Z AUTO 00000KT 10SM CLR 18/15 A2982 RMK AO2 T01820153

More Conditions Fewer Conditions

Nowcast | as of 9:00 PM EDT on August 3, 2015

At 10 PM...partly cloudy. Slight chance of showers. Temperature 66. Light winds. At 12 am...partly cloudy. Slight chance of showers. Temperature 62. Light winds. At 2 am...partly cloudy. Scattered showers and isolated thunderstorms. Temperature 61. Light winds. At 4 am...mostly cloudy. Scattered showers and isolated thunderstorms. Temperature 59. Light winds.

×

10-Day Weather Forecast

×

Almanac

Astronomy

Aug. 03, 2015 Rise Set
Actual Time
Civil Twilight
Nautical Twilight
Astronomical Twilight
Moon
Length of Visible Light
Length of Day
Tomorrow will be .
, % of the Moon is Illuminated

Today's Extremes

State Highs State Lows

Community

WunderPhotos

Upload Photos

1,843,816 photos uploaded!

WunderBlogs® & News

Nearby

Air Quality

  Air Quality AQ Index Pollutant
Not available.

Snow Depth

Station Depth Elevation

Earthquake Activity

City Distance Mag. Time & Date
Minimum magnitude displayed is 2.5.

Coastal Water Temperatures

Place Temperature

Stations

Nearby Weather Stations

Station Location Temp. Windchill Dew Point Humidity Wind Precip. Elev Updated Type